sensor_id;sensor_type;location;lat;lon;timestamp;P1;durP1;ratioP1;P2;durP2;ratioP2
46607;SDS011;32330;51.936;7.184;2022-09-20T00:00:05;7.38;;;1.60;;
46607;SDS011;32330;51.936;7.184;2022-09-20T00:02:31;6.68;;;2.15;;
46607;SDS011;32330;51.936;7.184;2022-09-20T00:04:56;7.82;;;2.17;;
46607;SDS011;32330;51.936;7.184;2022-09-20T00:07:22;7.72;;;1.65;;
46607;SDS011;32330;51.936;7.184;2022-09-20T00:09:47;5.30;;;1.65;;
46607;SDS011;32330;51.936;7.184;2022-09-20T00:12:13;6.78;;;2.10;;
46607;SDS011;32330;51.936;7.184;2022-09-20T00:14:38;6.75;;;1.60;;
46607;SDS011;32330;51.936;7.184;2022-09-20T00:17:04;7.35;;;2.45;;
46607;SDS011;32330;51.936;7.184;2022-09-20T00:19:29;5.07;;;1.65;;
46607;SDS011;32330;51.936;7.184;2022-09-20T00:21:55;11.60;;;1.75;;
46607;SDS011;32330;51.936;7.184;2022-09-20T00:24:20;7.85;;;2.10;;
46607;SDS011;32330;51.936;7.184;2022-09-20T00:26:46;6.28;;;1.85;;
46607;SDS011;32330;51.936;7.184;2022-09-20T00:29:12;5.90;;;1.73;;
46607;SDS011;32330;51.936;7.184;2022-09-20T00:31:37;8.07;;;2.15;;
46607;SDS011;32330;51.936;7.184;2022-09-20T00:34:07;6.18;;;1.63;;
46607;SDS011;32330;51.936;7.184;2022-09-20T00:36:53;10.40;;;1.70;;
46607;SDS011;32330;51.936;7.184;2022-09-20T00:39:18;6.72;;;1.70;;
46607;SDS011;32330;51.936;7.184;2022-09-20T00:41:44;8.80;;;1.98;;
46607;SDS011;32330;51.936;7.184;2022-09-20T00:47:31;5.75;;;1.52;;
46607;SDS011;32330;51.936;7.184;2022-09-20T00:50:00;7.32;;;1.70;;
46607;SDS011;32330;51.936;7.184;2022-09-20T00:52:53;5.45;;;1.55;;
46607;SDS011;32330;51.936;7.184;2022-09-20T00:55:29;9.52;;;1.60;;
46607;SDS011;32330;51.936;7.184;2022-09-20T00:57:57;3.88;;;1.45;;
46607;SDS011;32330;51.936;7.184;2022-09-20T01:00:24;6.88;;;1.63;;
46607;SDS011;32330;51.936;7.184;2022-09-20T01:02:52;6.03;;;2.00;;
46607;SDS011;32330;51.936;7.184;2022-09-20T01:05:23;7.70;;;1.65;;
46607;SDS011;32330;51.936;7.184;2022-09-20T01:07:49;6.03;;;1.50;;
46607;SDS011;32330;51.936;7.184;2022-09-20T01:10:15;5.55;;;1.45;;
46607;SDS011;32330;51.936;7.184;2022-09-20T01:12:42;4.93;;;1.67;;
46607;SDS011;32330;51.936;7.184;2022-09-20T01:15:10;8.50;;;1.40;;
46607;SDS011;32330;51.936;7.184;2022-09-20T01:17:36;6.47;;;1.70;;
46607;SDS011;32330;51.936;7.184;2022-09-20T01:20:13;7.13;;;1.65;;
46607;SDS011;32330;51.936;7.184;2022-09-20T01:22:49;2.88;;;1.23;;
46607;SDS011;32330;51.936;7.184;2022-09-20T01:28:20;3.58;;;1.23;;
46607;SDS011;32330;51.936;7.184;2022-09-20T01:30:49;5.15;;;1.70;;
46607;SDS011;32330;51.936;7.184;2022-09-20T01:36:03;5.82;;;1.60;;
46607;SDS011;32330;51.936;7.184;2022-09-20T01:38:35;3.67;;;1.40;;
46607;SDS011;32330;51.936;7.184;2022-09-20T01:41:21;6.30;;;1.40;;
46607;SDS011;32330;51.936;7.184;2022-09-20T01:43:50;6.57;;;1.45;;
46607;SDS011;32330;51.936;7.184;2022-09-20T01:49:02;5.80;;;1.35;;
46607;SDS011;32330;51.936;7.184;2022-09-20T02:00:30;4.35;;;1.23;;
46607;SDS011;32330;51.936;7.184;2022-09-20T02:03:17;5.13;;;2.03;;
46607;SDS011;32330;51.936;7.184;2022-09-20T02:05:59;4.22;;;1.33;;
46607;SDS011;32330;51.936;7.184;2022-09-20T02:11:16;2.85;;;1.20;;
46607;SDS011;32330;51.936;7.184;2022-09-20T02:13:55;5.10;;;1.50;;
46607;SDS011;32330;51.936;7.184;2022-09-20T02:21:54;4.05;;;1.27;;
46607;SDS011;32330;51.936;7.184;2022-09-20T02:25:01;5.10;;;1.83;;
46607;SDS011;32330;51.936;7.184;2022-09-20T02:27:44;4.38;;;1.30;;
46607;SDS011;32330;51.936;7.184;2022-09-20T02:33:21;4.88;;;1.60;;
46607;SDS011;32330;51.936;7.184;2022-09-20T02:38:56;3.55;;;1.33;;
46607;SDS011;32330;51.936;7.184;2022-09-20T02:52:36;3.53;;;1.50;;
46607;SDS011;32330;51.936;7.184;2022-09-20T02:58:02;4.97;;;1.65;;
46607;SDS011;32330;51.936;7.184;2022-09-20T03:00:58;4.43;;;1.42;;
46607;SDS011;32330;51.936;7.184;2022-09-20T03:07:36;5.22;;;1.40;;
46607;SDS011;32330;51.936;7.184;2022-09-20T03:10:34;4.53;;;1.63;;
46607;SDS011;32330;51.936;7.184;2022-09-20T03:18:56;6.88;;;1.67;;
46607;SDS011;32330;51.936;7.184;2022-09-20T03:22:02;4.75;;;1.50;;
46607;SDS011;32330;51.936;7.184;2022-09-20T03:27:56;7.18;;;1.80;;
46607;SDS011;32330;51.936;7.184;2022-09-20T03:36:40;9.73;;;2.30;;
46607;SDS011;32330;51.936;7.184;2022-09-20T03:44:51;3.58;;;1.70;;
46607;SDS011;32330;51.936;7.184;2022-09-20T03:47:45;5.97;;;1.77;;
46607;SDS011;32330;51.936;7.184;2022-09-20T03:58:40;4.07;;;1.77;;
46607;SDS011;32330;51.936;7.184;2022-09-20T04:01:36;7.75;;;2.20;;
46607;SDS011;32330;51.936;7.184;2022-09-20T04:07:21;7.50;;;2.03;;
46607;SDS011;32330;51.936;7.184;2022-09-20T04:10:26;9.90;;;3.03;;
46607;SDS011;32330;51.936;7.184;2022-09-20T04:18:16;8.13;;;2.75;;
46607;SDS011;32330;51.936;7.184;2022-09-20T04:24:03;9.85;;;3.65;;
46607;SDS011;32330;51.936;7.184;2022-09-20T04:26:36;10.50;;;3.70;;
46607;SDS011;32330;51.936;7.184;2022-09-20T04:32:06;6.07;;;3.08;;
46607;SDS011;32330;51.936;7.184;2022-09-20T04:35:02;7.30;;;2.92;;
46607;SDS011;32330;51.936;7.184;2022-09-20T04:37:55;5.78;;;2.90;;
46607;SDS011;32330;51.936;7.184;2022-09-20T04:40:30;8.30;;;2.75;;
46607;SDS011;32330;51.936;7.184;2022-09-20T04:45:54;10.43;;;3.25;;
46607;SDS011;32330;51.936;7.184;2022-09-20T04:48:29;9.38;;;3.20;;
46607;SDS011;32330;51.936;7.184;2022-09-20T05:02:36;8.13;;;3.80;;
46607;SDS011;32330;51.936;7.184;2022-09-20T05:11:52;10.38;;;3.40;;
46607;SDS011;32330;51.936;7.184;2022-09-20T05:15:04;11.65;;;3.80;;
46607;SDS011;32330;51.936;7.184;2022-09-20T05:25:08;8.10;;;3.70;;
46607;SDS011;32330;51.936;7.184;2022-09-20T05:28:09;6.30;;;3.45;;
46607;SDS011;32330;51.936;7.184;2022-09-20T05:30:44;8.77;;;3.80;;
46607;SDS011;32330;51.936;7.184;2022-09-20T05:33:52;8.90;;;3.30;;
46607;SDS011;32330;51.936;7.184;2022-09-20T05:42:51;7.30;;;3.72;;
46607;SDS011;32330;51.936;7.184;2022-09-20T05:48:12;8.43;;;4.55;;
46607;SDS011;32330;51.936;7.184;2022-09-20T05:50:57;7.22;;;3.80;;
46607;SDS011;32330;51.936;7.184;2022-09-20T05:53:47;8.48;;;4.22;;
46607;SDS011;32330;51.936;7.184;2022-09-20T06:04:49;9.57;;;4.38;;
46607;SDS011;32330;51.936;7.184;2022-09-20T06:13:31;10.40;;;4.20;;
46607;SDS011;32330;51.936;7.184;2022-09-20T06:16:31;10.80;;;3.90;;
46607;SDS011;32330;51.936;7.184;2022-09-20T06:22:06;10.77;;;5.07;;
46607;SDS011;32330;51.936;7.184;2022-09-20T06:24:57;12.38;;;4.35;;
46607;SDS011;32330;51.936;7.184;2022-09-20T06:30:30;12.88;;;5.13;;
46607;SDS011;32330;51.936;7.184;2022-09-20T06:33:00;10.40;;;3.95;;
46607;SDS011;32330;51.936;7.184;2022-09-20T06:35:53;10.38;;;4.60;;
46607;SDS011;32330;51.936;7.184;2022-09-20T06:41:20;7.68;;;4.22;;
46607;SDS011;32330;51.936;7.184;2022-09-20T06:43:58;9.30;;;3.97;;
46607;SDS011;32330;51.936;7.184;2022-09-20T06:46:26;15.82;;;6.28;;
46607;SDS011;32330;51.936;7.184;2022-09-20T06:48:52;13.43;;;4.70;;
46607;SDS011;32330;51.936;7.184;2022-09-20T06:51:19;7.60;;;3.47;;
46607;SDS011;32330;51.936;7.184;2022-09-20T06:53:45;10.68;;;4.30;;
46607;SDS011;32330;51.936;7.184;2022-09-20T06:56:14;11.93;;;3.92;;
46607;SDS011;32330;51.936;7.184;2022-09-20T06:58:46;11.00;;;4.05;;
46607;SDS011;32330;51.936;7.184;2022-09-20T07:01:12;10.90;;;4.47;;
46607;SDS011;32330;51.936;7.184;2022-09-20T07:03:38;10.23;;;3.75;;
46607;SDS011;32330;51.936;7.184;2022-09-20T07:06:04;6.40;;;3.45;;
46607;SDS011;32330;51.936;7.184;2022-09-20T07:08:30;9.23;;;3.70;;
46607;SDS011;32330;51.936;7.184;2022-09-20T07:10:55;11.48;;;3.67;;
46607;SDS011;32330;51.936;7.184;2022-09-20T07:13:21;7.05;;;3.58;;
46607;SDS011;32330;51.936;7.184;2022-09-20T07:15:48;10.13;;;3.75;;
46607;SDS011;32330;51.936;7.184;2022-09-20T07:18:14;11.55;;;3.70;;
46607;SDS011;32330;51.936;7.184;2022-09-20T07:20:40;8.38;;;3.17;;
46607;SDS011;32330;51.936;7.184;2022-09-20T07:23:05;7.68;;;3.30;;
46607;SDS011;32330;51.936;7.184;2022-09-20T07:25:32;8.68;;;3.35;;
46607;SDS011;32330;51.936;7.184;2022-09-20T07:27:58;10.25;;;3.55;;
46607;SDS011;32330;51.936;7.184;2022-09-20T07:30:24;9.90;;;3.50;;
46607;SDS011;32330;51.936;7.184;2022-09-20T07:32:49;11.88;;;5.65;;
46607;SDS011;32330;51.936;7.184;2022-09-20T07:35:15;10.02;;;4.53;;
46607;SDS011;32330;51.936;7.184;2022-09-20T07:37:41;8.60;;;3.08;;
46607;SDS011;32330;51.936;7.184;2022-09-20T07:40:07;10.57;;;3.08;;
46607;SDS011;32330;51.936;7.184;2022-09-20T07:42:34;10.13;;;3.47;;
46607;SDS011;32330;51.936;7.184;2022-09-20T07:45:00;9.75;;;2.92;;
46607;SDS011;32330;51.936;7.184;2022-09-20T07:47:27;6.15;;;2.92;;
46607;SDS011;32330;51.936;7.184;2022-09-20T07:49:55;7.85;;;3.42;;
46607;SDS011;32330;51.936;7.184;2022-09-20T07:52:21;6.75;;;3.55;;
46607;SDS011;32330;51.936;7.184;2022-09-20T07:54:47;4.88;;;3.25;;
46607;SDS011;32330;51.936;7.184;2022-09-20T07:57:14;7.95;;;2.75;;
46607;SDS011;32330;51.936;7.184;2022-09-20T07:59:40;8.85;;;2.55;;
46607;SDS011;32330;51.936;7.184;2022-09-20T08:02:05;13.75;;;3.75;;
46607;SDS011;32330;51.936;7.184;2022-09-20T08:04:31;8.48;;;2.70;;
46607;SDS011;32330;51.936;7.184;2022-09-20T08:06:57;8.00;;;2.75;;
46607;SDS011;32330;51.936;7.184;2022-09-20T08:09:22;11.15;;;2.97;;
46607;SDS011;32330;51.936;7.184;2022-09-20T08:11:48;5.57;;;2.72;;
46607;SDS011;32330;51.936;7.184;2022-09-20T08:14:15;14.15;;;3.20;;
46607;SDS011;32330;51.936;7.184;2022-09-20T08:16:45;6.45;;;2.33;;
46607;SDS011;32330;51.936;7.184;2022-09-20T08:19:16;6.53;;;2.65;;
46607;SDS011;32330;51.936;7.184;2022-09-20T08:21:42;7.72;;;2.15;;
46607;SDS011;32330;51.936;7.184;2022-09-20T08:24:08;8.82;;;2.35;;
46607;SDS011;32330;51.936;7.184;2022-09-20T08:26:34;7.55;;;2.33;;
46607;SDS011;32330;51.936;7.184;2022-09-20T08:28:59;7.80;;;1.60;;
46607;SDS011;32330;51.936;7.184;2022-09-20T08:31:29;6.10;;;2.33;;
46607;SDS011;32330;51.936;7.184;2022-09-20T08:33:58;6.55;;;2.08;;
46607;SDS011;32330;51.936;7.184;2022-09-20T08:36:27;8.75;;;1.67;;
46607;SDS011;32330;51.936;7.184;2022-09-20T08:38:54;5.72;;;1.75;;
46607;SDS011;32330;51.936;7.184;2022-09-20T08:41:21;6.68;;;1.70;;
46607;SDS011;32330;51.936;7.184;2022-09-20T08:43:52;4.95;;;1.95;;
46607;SDS011;32330;51.936;7.184;2022-09-20T08:46:37;7.53;;;1.85;;
46607;SDS011;32330;51.936;7.184;2022-09-20T08:49:05;5.93;;;1.80;;
46607;SDS011;32330;51.936;7.184;2022-09-20T08:51:33;5.00;;;1.40;;
46607;SDS011;32330;51.936;7.184;2022-09-20T08:54:02;7.97;;;1.52;;
46607;SDS011;32330;51.936;7.184;2022-09-20T08:56:33;5.03;;;2.05;;
46607;SDS011;32330;51.936;7.184;2022-09-20T09:01:28;5.03;;;1.67;;
46607;SDS011;32330;51.936;7.184;2022-09-20T09:06:49;8.77;;;1.67;;
46607;SDS011;32330;51.936;7.184;2022-09-20T09:09:23;5.25;;;1.52;;
46607;SDS011;32330;51.936;7.184;2022-09-20T09:11:51;3.80;;;1.02;;
46607;SDS011;32330;51.936;7.184;2022-09-20T09:14:26;3.92;;;1.60;;
46607;SDS011;32330;51.936;7.184;2022-09-20T09:17:13;4.30;;;1.40;;
46607;SDS011;32330;51.936;7.184;2022-09-20T09:24:42;5.50;;;1.65;;
46607;SDS011;32330;51.936;7.184;2022-09-20T09:27:13;5.22;;;1.33;;
46607;SDS011;32330;51.936;7.184;2022-09-20T09:29:53;5.15;;;1.02;;
46607;SDS011;32330;51.936;7.184;2022-09-20T09:32:25;3.58;;;1.17;;
46607;SDS011;32330;51.936;7.184;2022-09-20T09:37:58;4.78;;;1.27;;
46607;SDS011;32330;51.936;7.184;2022-09-20T09:40:25;2.08;;;1.02;;
46607;SDS011;32330;51.936;7.184;2022-09-20T09:42:59;4.22;;;1.55;;
46607;SDS011;32330;51.936;7.184;2022-09-20T09:47:54;3.53;;;0.75;;
46607;SDS011;32330;51.936;7.184;2022-09-20T09:50:31;4.95;;;0.82;;
46607;SDS011;32330;51.936;7.184;2022-09-20T09:53:11;4.90;;;2.45;;
46607;SDS011;32330;51.936;7.184;2022-09-20T09:59:05;3.67;;;1.30;;
46607;SDS011;32330;51.936;7.184;2022-09-20T10:01:05;3.25;;;1.10;;
46607;SDS011;32330;51.936;7.184;2022-09-20T10:17:33;5.40;;;1.27;;
46607;SDS011;32330;51.936;7.184;2022-09-20T10:23:18;2.67;;;0.90;;
46607;SDS011;32330;51.936;7.184;2022-09-20T10:26:02;3.50;;;1.00;;
46607;SDS011;32330;51.936;7.184;2022-09-20T10:36:53;7.75;;;1.77;;
46607;SDS011;32330;51.936;7.184;2022-09-20T10:39:33;3.67;;;1.27;;
46607;SDS011;32330;51.936;7.184;2022-09-20T10:42:16;2.60;;;1.33;;
46607;SDS011;32330;51.936;7.184;2022-09-20T10:45:33;3.70;;;1.17;;
46607;SDS011;32330;51.936;7.184;2022-09-20T10:48:11;3.75;;;0.98;;
46607;SDS011;32330;51.936;7.184;2022-09-20T10:53:59;3.78;;;1.48;;
46607;SDS011;32330;51.936;7.184;2022-09-20T10:56:32;6.90;;;4.28;;
46607;SDS011;32330;51.936;7.184;2022-09-20T11:05:17;5.20;;;1.00;;
46607;SDS011;32330;51.936;7.184;2022-09-20T11:08:07;2.83;;;1.05;;
46607;SDS011;32330;51.936;7.184;2022-09-20T11:15:55;4.90;;;1.60;;
46607;SDS011;32330;51.936;7.184;2022-09-20T11:18:31;5.18;;;1.00;;
46607;SDS011;32330;51.936;7.184;2022-09-20T11:26:09;3.80;;;0.93;;
46607;SDS011;32330;51.936;7.184;2022-09-20T11:28:46;5.13;;;1.20;;
46607;SDS011;32330;51.936;7.184;2022-09-20T11:31:22;5.95;;;2.20;;
46607;SDS011;32330;51.936;7.184;2022-09-20T11:33:55;2.40;;;1.08;;
46607;SDS011;32330;51.936;7.184;2022-09-20T11:38:48;5.15;;;1.27;;
46607;SDS011;32330;51.936;7.184;2022-09-20T11:41:27;3.60;;;1.00;;
46607;SDS011;32330;51.936;7.184;2022-09-20T11:44:03;2.22;;;0.88;;
46607;SDS011;32330;51.936;7.184;2022-09-20T11:52:36;4.75;;;1.40;;
46607;SDS011;32330;51.936;7.184;2022-09-20T11:55:37;4.90;;;1.30;;
46607;SDS011;32330;51.936;7.184;2022-09-20T11:58:05;8.02;;;4.25;;
46607;SDS011;32330;51.936;7.184;2022-09-20T12:00:34;4.82;;;1.23;;
46607;SDS011;32330;51.936;7.184;2022-09-20T12:03:03;4.28;;;1.10;;
46607;SDS011;32330;51.936;7.184;2022-09-20T12:08:03;5.75;;;1.23;;
46607;SDS011;32330;51.936;7.184;2022-09-20T12:10:33;2.92;;;1.02;;
46607;SDS011;32330;51.936;7.184;2022-09-20T12:15:34;6.65;;;1.50;;
46607;SDS011;32330;51.936;7.184;2022-09-20T12:18:07;2.53;;;0.80;;
46607;SDS011;32330;51.936;7.184;2022-09-20T12:20:56;3.05;;;1.15;;
46607;SDS011;32330;51.936;7.184;2022-09-20T12:28:57;3.77;;;0.77;;
46607;SDS011;32330;51.936;7.184;2022-09-20T12:31:36;6.95;;;2.25;;
46607;SDS011;32330;51.936;7.184;2022-09-20T12:47:37;5.25;;;1.00;;
46607;SDS011;32330;51.936;7.184;2022-09-20T12:49:56;4.13;;;1.02;;
46607;SDS011;32330;51.936;7.184;2022-09-20T13:00:43;5.35;;;0.88;;
46607;SDS011;32330;51.936;7.184;2022-09-20T13:05:46;6.43;;;1.25;;
46607;SDS011;32330;51.936;7.184;2022-09-20T13:08:17;5.03;;;0.95;;
46607;SDS011;32330;51.936;7.184;2022-09-20T13:10:47;2.95;;;0.70;;
46607;SDS011;32330;51.936;7.184;2022-09-20T13:13:31;5.68;;;0.90;;
46607;SDS011;32330;51.936;7.184;2022-09-20T13:16:28;4.25;;;1.00;;
46607;SDS011;32330;51.936;7.184;2022-09-20T13:19:02;8.73;;;1.10;;
46607;SDS011;32330;51.936;7.184;2022-09-20T13:21:43;5.63;;;1.13;;
46607;SDS011;32330;51.936;7.184;2022-09-20T13:24:22;7.45;;;1.35;;
46607;SDS011;32330;51.936;7.184;2022-09-20T13:26:51;3.58;;;1.15;;
46607;SDS011;32330;51.936;7.184;2022-09-20T13:29:39;4.07;;;0.88;;
46607;SDS011;32330;51.936;7.184;2022-09-20T13:32:15;3.40;;;0.90;;
46607;SDS011;32330;51.936;7.184;2022-09-20T13:34:42;3.33;;;0.70;;
46607;SDS011;32330;51.936;7.184;2022-09-20T13:37:16;4.75;;;1.10;;
46607;SDS011;32330;51.936;7.184;2022-09-20T13:39:51;4.28;;;0.90;;
46607;SDS011;32330;51.936;7.184;2022-09-20T13:42:18;4.10;;;1.00;;
46607;SDS011;32330;51.936;7.184;2022-09-20T13:44:45;3.47;;;0.80;;
46607;SDS011;32330;51.936;7.184;2022-09-20T13:47:27;5.30;;;1.10;;
46607;SDS011;32330;51.936;7.184;2022-09-20T13:50:06;2.47;;;0.80;;
46607;SDS011;32330;51.936;7.184;2022-09-20T13:52:45;4.40;;;1.00;;
46607;SDS011;32330;51.936;7.184;2022-09-20T13:57:56;4.10;;;0.70;;
46607;SDS011;32330;51.936;7.184;2022-09-20T14:00:26;3.60;;;0.88;;
46607;SDS011;32330;51.936;7.184;2022-09-20T14:02:53;2.45;;;0.80;;
46607;SDS011;32330;51.936;7.184;2022-09-20T14:05:20;3.15;;;0.68;;
46607;SDS011;32330;51.936;7.184;2022-09-20T14:07:49;6.07;;;1.00;;
46607;SDS011;32330;51.936;7.184;2022-09-20T14:10:34;2.38;;;0.60;;
46607;SDS011;32330;51.936;7.184;2022-09-20T14:13:02;4.30;;;0.95;;
46607;SDS011;32330;51.936;7.184;2022-09-20T14:15:38;3.30;;;1.00;;
46607;SDS011;32330;51.936;7.184;2022-09-20T14:18:15;4.65;;;0.80;;
46607;SDS011;32330;51.936;7.184;2022-09-20T14:20:45;3.88;;;0.85;;
46607;SDS011;32330;51.936;7.184;2022-09-20T14:23:24;4.30;;;0.70;;
46607;SDS011;32330;51.936;7.184;2022-09-20T14:26:04;4.57;;;0.82;;
46607;SDS011;32330;51.936;7.184;2022-09-20T14:28:45;1.67;;;0.60;;
46607;SDS011;32330;51.936;7.184;2022-09-20T14:31:21;4.35;;;0.82;;
46607;SDS011;32330;51.936;7.184;2022-09-20T14:33:50;6.22;;;1.25;;
46607;SDS011;32330;51.936;7.184;2022-09-20T14:36:22;5.45;;;1.15;;
46607;SDS011;32330;51.936;7.184;2022-09-20T14:38:52;3.25;;;0.75;;
46607;SDS011;32330;51.936;7.184;2022-09-20T14:41:27;2.75;;;0.90;;
46607;SDS011;32330;51.936;7.184;2022-09-20T14:43:58;3.88;;;0.90;;
46607;SDS011;32330;51.936;7.184;2022-09-20T14:46:33;5.90;;;1.08;;
46607;SDS011;32330;51.936;7.184;2022-09-20T14:51:46;4.38;;;1.25;;
46607;SDS011;32330;51.936;7.184;2022-09-20T14:56:40;5.68;;;1.23;;
46607;SDS011;32330;51.936;7.184;2022-09-20T15:01:44;4.75;;;1.50;;
46607;SDS011;32330;51.936;7.184;2022-09-20T15:04:25;5.90;;;1.42;;
46607;SDS011;32330;51.936;7.184;2022-09-20T15:06:52;3.63;;;0.80;;
46607;SDS011;32330;51.936;7.184;2022-09-20T15:09:20;6.18;;;1.10;;
46607;SDS011;32330;51.936;7.184;2022-09-20T15:11:46;3.03;;;0.60;;
46607;SDS011;32330;51.936;7.184;2022-09-20T15:14:22;2.67;;;0.82;;
46607;SDS011;32330;51.936;7.184;2022-09-20T15:16:47;3.60;;;0.88;;
46607;SDS011;32330;51.936;7.184;2022-09-20T15:19:13;4.50;;;1.00;;
46607;SDS011;32330;51.936;7.184;2022-09-20T15:21:38;2.60;;;0.70;;
46607;SDS011;32330;51.936;7.184;2022-09-20T15:24:04;3.97;;;0.85;;
46607;SDS011;32330;51.936;7.184;2022-09-20T15:26:29;3.10;;;1.00;;
46607;SDS011;32330;51.936;7.184;2022-09-20T15:28:56;2.60;;;0.85;;
46607;SDS011;32330;51.936;7.184;2022-09-20T15:31:22;3.63;;;1.02;;
46607;SDS011;32330;51.936;7.184;2022-09-20T15:33:48;3.22;;;1.20;;
46607;SDS011;32330;51.936;7.184;2022-09-20T15:36:13;2.65;;;0.80;;
46607;SDS011;32330;51.936;7.184;2022-09-20T15:38:39;4.13;;;0.88;;
46607;SDS011;32330;51.936;7.184;2022-09-20T15:41:04;5.55;;;0.90;;
46607;SDS011;32330;51.936;7.184;2022-09-20T15:43:31;2.20;;;0.88;;
46607;SDS011;32330;51.936;7.184;2022-09-20T15:46:15;3.75;;;1.10;;
46607;SDS011;32330;51.936;7.184;2022-09-20T15:48:40;4.72;;;1.20;;
46607;SDS011;32330;51.936;7.184;2022-09-20T15:51:07;9.63;;;0.90;;
46607;SDS011;32330;51.936;7.184;2022-09-20T15:53:36;5.95;;;1.27;;
46607;SDS011;32330;51.936;7.184;2022-09-20T15:56:04;6.40;;;1.02;;
46607;SDS011;32330;51.936;7.184;2022-09-20T15:58:51;3.88;;;1.00;;
46607;SDS011;32330;51.936;7.184;2022-09-20T16:01:28;4.20;;;0.90;;
46607;SDS011;32330;51.936;7.184;2022-09-20T16:06:31;6.03;;;1.13;;
46607;SDS011;32330;51.936;7.184;2022-09-20T16:08:57;5.82;;;1.08;;
46607;SDS011;32330;51.936;7.184;2022-09-20T16:11:23;4.30;;;1.05;;
46607;SDS011;32330;51.936;7.184;2022-09-20T16:13:52;4.75;;;1.20;;
46607;SDS011;32330;51.936;7.184;2022-09-20T16:16:18;5.30;;;1.02;;
46607;SDS011;32330;51.936;7.184;2022-09-20T16:18:44;5.15;;;1.15;;
46607;SDS011;32330;51.936;7.184;2022-09-20T16:21:28;3.40;;;1.08;;
46607;SDS011;32330;51.936;7.184;2022-09-20T16:23:55;3.42;;;1.08;;
46607;SDS011;32330;51.936;7.184;2022-09-20T16:26:22;3.78;;;1.13;;
46607;SDS011;32330;51.936;7.184;2022-09-20T16:28:50;4.35;;;1.13;;
46607;SDS011;32330;51.936;7.184;2022-09-20T16:31:36;5.45;;;1.80;;
46607;SDS011;32330;51.936;7.184;2022-09-20T16:36:36;4.28;;;1.27;;
46607;SDS011;32330;51.936;7.184;2022-09-20T16:39:02;5.75;;;1.40;;
46607;SDS011;32330;51.936;7.184;2022-09-20T16:41:28;4.97;;;1.15;;
46607;SDS011;32330;51.936;7.184;2022-09-20T16:43:55;3.95;;;1.20;;
46607;SDS011;32330;51.936;7.184;2022-09-20T16:46:21;4.85;;;1.13;;
46607;SDS011;32330;51.936;7.184;2022-09-20T16:48:51;4.30;;;1.35;;
46607;SDS011;32330;51.936;7.184;2022-09-20T16:51:18;5.90;;;1.65;;
46607;SDS011;32330;51.936;7.184;2022-09-20T16:53:52;4.88;;;1.80;;
46607;SDS011;32330;51.936;7.184;2022-09-20T16:56:25;6.10;;;1.35;;
46607;SDS011;32330;51.936;7.184;2022-09-20T16:58:53;4.10;;;1.23;;
46607;SDS011;32330;51.936;7.184;2022-09-20T17:01:19;5.63;;;1.35;;
46607;SDS011;32330;51.936;7.184;2022-09-20T17:03:46;3.78;;;0.95;;
46607;SDS011;32330;51.936;7.184;2022-09-20T17:06:11;3.00;;;0.85;;
46607;SDS011;32330;51.936;7.184;2022-09-20T17:08:39;3.88;;;1.60;;
46607;SDS011;32330;51.936;7.184;2022-09-20T17:11:06;5.45;;;3.60;;
46607;SDS011;32330;51.936;7.184;2022-09-20T17:13:38;4.18;;;1.27;;
46607;SDS011;32330;51.936;7.184;2022-09-20T17:16:06;4.35;;;1.30;;
46607;SDS011;32330;51.936;7.184;2022-09-20T17:18:34;4.57;;;1.63;;
46607;SDS011;32330;51.936;7.184;2022-09-20T17:21:06;3.63;;;1.23;;
46607;SDS011;32330;51.936;7.184;2022-09-20T17:23:32;5.60;;;1.92;;
46607;SDS011;32330;51.936;7.184;2022-09-20T17:26:05;3.40;;;1.23;;
46607;SDS011;32330;51.936;7.184;2022-09-20T17:28:37;4.20;;;1.58;;
46607;SDS011;32330;51.936;7.184;2022-09-20T17:31:04;3.75;;;1.33;;
46607;SDS011;32330;51.936;7.184;2022-09-20T17:33:32;2.92;;;0.90;;
46607;SDS011;32330;51.936;7.184;2022-09-20T17:35:59;4.07;;;1.20;;
46607;SDS011;32330;51.936;7.184;2022-09-20T17:38:26;4.10;;;1.30;;
46607;SDS011;32330;51.936;7.184;2022-09-20T17:41:02;7.07;;;3.83;;
46607;SDS011;32330;51.936;7.184;2022-09-20T17:43:33;5.80;;;1.70;;
46607;SDS011;32330;51.936;7.184;2022-09-20T17:46:04;4.63;;;1.92;;
46607;SDS011;32330;51.936;7.184;2022-09-20T17:48:41;3.20;;;1.42;;
46607;SDS011;32330;51.936;7.184;2022-09-20T17:53:39;5.88;;;2.00;;
46607;SDS011;32330;51.936;7.184;2022-09-20T17:56:05;3.35;;;1.30;;
46607;SDS011;32330;51.936;7.184;2022-09-20T17:58:32;7.78;;;2.35;;
46607;SDS011;32330;51.936;7.184;2022-09-20T18:01:06;3.50;;;2.30;;
46607;SDS011;32330;51.936;7.184;2022-09-20T18:03:35;10.88;;;6.13;;
46607;SDS011;32330;51.936;7.184;2022-09-20T18:06:18;12.68;;;8.38;;
46607;SDS011;32330;51.936;7.184;2022-09-20T18:08:46;9.38;;;5.18;;
46607;SDS011;32330;51.936;7.184;2022-09-20T18:11:14;8.30;;;4.00;;
46607;SDS011;32330;51.936;7.184;2022-09-20T18:13:41;8.25;;;5.13;;
46607;SDS011;32330;51.936;7.184;2022-09-20T18:16:07;13.05;;;8.55;;
46607;SDS011;32330;51.936;7.184;2022-09-20T18:18:38;9.82;;;5.93;;
46607;SDS011;32330;51.936;7.184;2022-09-20T18:21:38;7.47;;;4.57;;
46607;SDS011;32330;51.936;7.184;2022-09-20T18:23:59;9.68;;;5.93;;
46607;SDS011;32330;51.936;7.184;2022-09-20T18:26:28;8.15;;;4.65;;
46607;SDS011;32330;51.936;7.184;2022-09-20T18:29:00;4.32;;;3.25;;
46607;SDS011;32330;51.936;7.184;2022-09-20T18:31:46;25.98;;;16.63;;
46607;SDS011;32330;51.936;7.184;2022-09-20T18:34:17;40.45;;;27.13;;
46607;SDS011;32330;51.936;7.184;2022-09-20T18:36:55;81.75;;;53.88;;
46607;SDS011;32330;51.936;7.184;2022-09-20T18:39:22;55.85;;;35.40;;
46607;SDS011;32330;51.936;7.184;2022-09-20T18:41:49;8.65;;;5.45;;
46607;SDS011;32330;51.936;7.184;2022-09-20T18:44:16;12.70;;;5.90;;
46607;SDS011;32330;51.936;7.184;2022-09-20T18:46:43;9.40;;;4.80;;
46607;SDS011;32330;51.936;7.184;2022-09-20T18:49:10;6.07;;;2.60;;
46607;SDS011;32330;51.936;7.184;2022-09-20T18:51:41;4.57;;;2.60;;
46607;SDS011;32330;51.936;7.184;2022-09-20T18:54:08;5.15;;;2.33;;
46607;SDS011;32330;51.936;7.184;2022-09-20T18:56:34;5.57;;;2.28;;
46607;SDS011;32330;51.936;7.184;2022-09-20T18:59:12;3.20;;;1.45;;
46607;SDS011;32330;51.936;7.184;2022-09-20T19:01:55;4.30;;;2.10;;
46607;SDS011;32330;51.936;7.184;2022-09-20T19:18:45;7.90;;;2.67;;
46607;SDS011;32330;51.936;7.184;2022-09-20T19:21:26;6.32;;;2.67;;
46607;SDS011;32330;51.936;7.184;2022-09-20T19:26:24;7.45;;;4.88;;
46607;SDS011;32330;51.936;7.184;2022-09-20T19:28:52;7.75;;;5.60;;
46607;SDS011;32330;51.936;7.184;2022-09-20T19:31:24;8.20;;;4.70;;
46607;SDS011;32330;51.936;7.184;2022-09-20T19:33:52;5.60;;;2.55;;
46607;SDS011;32330;51.936;7.184;2022-09-20T19:36:20;8.60;;;5.07;;
46607;SDS011;32330;51.936;7.184;2022-09-20T19:39:01;4.95;;;2.70;;
46607;SDS011;32330;51.936;7.184;2022-09-20T19:41:41;5.22;;;2.33;;
46607;SDS011;32330;51.936;7.184;2022-09-20T19:52:32;4.22;;;2.13;;
46607;SDS011;32330;51.936;7.184;2022-09-20T19:54:58;5.80;;;1.73;;
46607;SDS011;32330;51.936;7.184;2022-09-20T19:57:30;5.10;;;2.20;;
46607;SDS011;32330;51.936;7.184;2022-09-20T20:02:35;5.43;;;3.13;;
46607;SDS011;32330;51.936;7.184;2022-09-20T20:05:01;6.43;;;4.25;;
46607;SDS011;32330;51.936;7.184;2022-09-20T20:10:09;4.78;;;2.67;;
46607;SDS011;32330;51.936;7.184;2022-09-20T20:13:15;6.05;;;2.33;;
46607;SDS011;32330;51.936;7.184;2022-09-20T20:16:09;3.40;;;1.80;;
46607;SDS011;32330;51.936;7.184;2022-09-20T20:21:16;5.38;;;2.05;;
46607;SDS011;32330;51.936;7.184;2022-09-20T20:23:53;10.45;;;3.45;;
46607;SDS011;32330;51.936;7.184;2022-09-20T20:26:28;15.32;;;5.50;;
46607;SDS011;32330;51.936;7.184;2022-09-20T20:28:55;9.10;;;5.40;;
46607;SDS011;32330;51.936;7.184;2022-09-20T20:31:20;17.02;;;8.77;;
46607;SDS011;32330;51.936;7.184;2022-09-20T20:33:46;11.00;;;5.75;;